createdAt,value
2018-04-07T00:01:32.176Z,7.93
2018-04-07T00:03:59.725Z,10.53
2018-04-07T00:06:27.292Z,12.73
2018-04-07T00:08:54.826Z,9.43
2018-04-07T00:11:23.144Z,9.83
2018-04-07T00:13:50.687Z,12.57
2018-04-07T00:16:19.008Z,9.80
2018-04-07T00:18:46.545Z,7.57
2018-04-07T00:21:14.875Z,12.43
2018-04-07T00:23:42.420Z,10.83
2018-04-07T00:26:09.976Z,7.10
2018-04-07T00:28:38.280Z,7.20
2018-04-07T00:31:05.837Z,8.87
2018-04-07T00:33:34.148Z,13.33
2018-04-07T00:36:01.712Z,10.57
2018-04-07T00:38:29.318Z,14.80
2018-04-07T00:40:56.876Z,6.80
2018-04-07T00:43:24.412Z,8.20
2018-04-07T00:45:52.735Z,6.07
2018-04-07T00:48:20.279Z,10.40
2018-04-07T00:50:48.609Z,13.23
2018-04-07T00:53:16.152Z,7.40
2018-04-07T00:55:43.684Z,9.37
2018-04-07T00:58:11.247Z,13.30
2018-04-07T01:00:38.789Z,13.10
2018-04-07T01:03:06.349Z,8.50
2018-04-07T01:05:33.885Z,11.67
2018-04-07T01:08:02.225Z,10.77
2018-04-07T01:10:29.764Z,7.27
2018-04-07T01:12:58.089Z,7.60
2018-04-07T01:15:25.620Z,8.77
2018-04-07T01:17:53.948Z,5.90
2018-04-07T01:20:21.489Z,12.13
2018-04-07T01:22:49.048Z,14.70
2018-04-07T01:25:17.354Z,9.33
2018-04-07T01:27:44.921Z,11.97
2018-04-07T01:30:12.465Z,9.83
2018-04-07T01:32:40.029Z,7.30
2018-04-07T01:35:07.575Z,11.77
2018-04-07T01:37:35.149Z,6.57
2018-04-07T01:40:02.707Z,13.87
2018-04-07T01:42:30.292Z,10.73
2018-04-07T01:44:57.828Z,6.93
2018-04-07T01:47:25.397Z,7.97
2018-04-07T01:49:52.933Z,8.87
2018-04-07T01:52:20.497Z,5.47
2018-04-07T01:54:48.820Z,8.80
2018-04-07T01:57:17.144Z,13.33
2018-04-07T01:59:44.696Z,13.10
2018-04-07T02:02:12.261Z,5.93
2018-04-07T02:04:39.808Z,10.30
2018-04-07T02:07:08.151Z,13.13
2018-04-07T02:09:35.693Z,12.87
2018-04-07T02:12:03.236Z,13.83
2018-04-07T02:14:30.809Z,9.60
2018-04-07T02:16:58.344Z,8.10
2018-04-07T02:19:25.917Z,10.80
2018-04-07T02:21:53.456Z,12.37
2018-04-07T02:24:21.067Z,8.63
2018-04-07T02:26:48.769Z,7.03
2018-04-07T02:29:16.332Z,13.63
2018-04-07T02:31:43.888Z,12.73
2018-04-07T02:34:11.444Z,13.47
2018-04-07T02:36:38.987Z,11.63
2018-04-07T02:39:06.549Z,9.57
2018-04-07T02:41:34.859Z,15.77
2018-04-07T02:44:02.420Z,8.93
2018-04-07T02:46:29.964Z,11.70
2018-04-07T02:48:58.291Z,9.87
2018-04-07T02:51:25.835Z,10.20
2018-04-07T02:53:53.398Z,14.30
2018-04-07T02:56:21.706Z,7.60
2018-04-07T02:58:49.264Z,11.67
2018-04-07T03:01:17.572Z,10.50
2018-04-07T03:03:45.197Z,9.40
2018-04-07T03:06:12.704Z,12.30
2018-04-07T03:08:41.028Z,16.23
2018-04-07T03:11:08.583Z,11.43
2018-04-07T03:13:36.156Z,15.03
2018-04-07T03:16:03.700Z,10.10
2018-04-07T03:18:32.027Z,24.60
2018-04-07T03:20:59.569Z,15.77
2018-04-07T03:23:27.876Z,16.70
2018-04-07T03:25:55.424Z,9.37
2018-04-07T03:28:23.750Z,14.80
2018-04-07T03:30:51.311Z,21.10
2018-04-07T03:33:18.848Z,15.97
2018-04-07T03:35:47.241Z,13.60
2018-04-07T03:38:15.552Z,21.40
2018-04-07T03:40:43.116Z,16.30
2018-04-07T03:43:10.661Z,13.17
2018-04-07T03:45:38.220Z,18.63
2018-04-07T03:48:05.769Z,15.67
2018-04-07T03:50:33.336Z,15.10
2018-04-07T03:53:00.891Z,19.10
2018-04-07T03:55:28.449Z,21.33
2018-04-07T03:57:55.992Z,11.43
2018-04-07T04:00:23.552Z,16.80
2018-04-07T04:02:51.088Z,20.17
2018-04-07T04:05:18.695Z,19.80
2018-04-07T04:07:46.219Z,16.23
2018-04-07T04:10:13.784Z,9.27
2018-04-07T04:12:41.392Z,10.20
2018-04-07T04:15:08.954Z,14.27
2018-04-07T04:17:36.500Z,14.00
2018-04-07T04:20:04.073Z,18.80
2018-04-07T04:22:31.615Z,16.00
2018-04-07T04:24:59.946Z,10.70
2018-04-07T04:27:27.493Z,13.20
2018-04-07T04:29:55.815Z,16.77
2018-04-07T04:32:23.367Z,17.83
2018-04-07T04:34:50.940Z,14.73
2018-04-07T04:37:18.484Z,12.17
2018-04-07T04:39:46.024Z,15.47
2018-04-07T04:42:13.580Z,16.17
2018-04-07T04:44:41.115Z,14.50
2018-04-07T04:47:08.669Z,17.40
2018-04-07T04:49:36.970Z,17.40
2018-04-07T04:52:05.291Z,14.73
2018-04-07T04:54:32.863Z,16.93
2018-04-07T04:57:00.428Z,15.00
2018-04-07T04:59:27.966Z,12.27
2018-04-07T05:01:56.289Z,18.30
2018-04-07T05:04:23.824Z,17.63
2018-04-07T05:06:52.144Z,13.70
2018-04-07T05:09:19.685Z,19.43
2018-04-07T05:11:48.012Z,25.53
2018-04-07T05:14:15.558Z,20.03
2018-04-07T05:16:44.100Z,15.10
2018-04-07T05:19:11.640Z,15.33
2018-04-07T05:21:39.196Z,13.43
2018-04-07T05:24:06.736Z,20.47
2018-04-07T05:26:34.299Z,14.83
2018-04-07T05:29:01.844Z,17.60
2018-04-07T05:31:29.405Z,14.40
2018-04-07T05:33:56.940Z,15.23
2018-04-07T05:36:25.261Z,23.87
2018-04-07T05:38:52.805Z,25.33
2018-04-07T05:41:21.140Z,22.10
2018-04-07T05:43:48.681Z,19.63
2018-04-07T05:46:16.244Z,21.63
2018-04-07T05:48:44.549Z,16.13
2018-04-07T05:51:12.108Z,15.43
2018-04-07T05:53:39.649Z,16.27
2018-04-07T05:56:07.192Z,20.90
2018-04-07T05:58:34.756Z,19.47
2018-04-07T06:01:02.304Z,17.47
2018-04-07T06:03:29.877Z,15.53
2018-04-07T06:05:57.421Z,15.30
2018-04-07T06:08:24.976Z,13.37
2018-04-07T06:10:52.519Z,16.37
2018-04-07T06:13:20.082Z,22.43
2018-04-07T06:15:47.631Z,13.23
2018-04-07T06:18:15.192Z,15.57
2018-04-07T06:20:42.732Z,11.37
2018-04-07T06:23:10.297Z,13.70
2018-04-07T06:25:37.844Z,26.23
2018-04-07T06:28:05.400Z,14.30
2018-04-07T06:30:32.951Z,16.93
2018-04-07T06:33:00.512Z,19.73
2018-04-07T06:35:28.824Z,16.37
2018-04-07T06:37:56.388Z,19.10
2018-04-07T06:40:23.940Z,17.53
2018-04-07T06:42:52.264Z,22.13
2018-04-07T06:45:19.808Z,15.00
2018-04-07T06:47:48.133Z,16.73
2018-04-07T06:50:15.694Z,13.43
2018-04-07T06:52:45.482Z,21.20
2018-04-07T06:55:13.060Z,19.57
2018-04-07T06:57:41.381Z,23.60
2018-04-07T07:00:08.926Z,17.63
2018-04-07T07:02:37.258Z,18.30
2018-04-07T07:05:04.969Z,13.60
2018-04-07T07:07:32.518Z,13.70
2018-04-07T07:10:00.842Z,26.00
2018-04-07T07:12:28.389Z,14.43
2018-04-07T07:14:55.941Z,16.33
2018-04-07T07:17:24.262Z,16.50
2018-04-07T07:19:51.826Z,19.70
2018-04-07T07:22:19.377Z,18.23
2018-04-07T07:24:46.941Z,14.10
2018-04-07T07:27:14.518Z,19.03
2018-04-07T07:29:42.085Z,13.23
2018-04-07T07:32:09.632Z,15.73
2018-04-07T07:34:37.212Z,18.00
2018-04-07T07:37:04.765Z,18.97
2018-04-07T07:39:32.328Z,16.20
2018-04-07T07:42:00.650Z,13.27
2018-04-07T07:44:28.224Z,19.73
2018-04-07T07:46:55.812Z,17.23
2018-04-07T07:49:23.381Z,21.60
2018-04-07T07:51:50.929Z,18.00
2018-04-07T07:54:18.497Z,17.30
2018-04-07T07:56:46.040Z,17.13
2018-04-07T07:59:14.372Z,10.10
2018-04-07T08:01:41.923Z,12.97
2018-04-07T08:04:09.485Z,14.50
2018-04-07T08:06:37.029Z,19.70
2018-04-07T08:09:04.596Z,17.60
2018-04-07T08:11:32.154Z,11.13
2018-04-07T08:13:59.724Z,17.93
2018-04-07T08:16:27.274Z,10.90
2018-04-07T08:18:54.820Z,17.93
2018-04-07T08:21:22.384Z,13.53
2018-04-07T08:23:49.947Z,14.50
2018-04-07T08:26:18.280Z,13.60
2018-04-07T08:28:45.829Z,16.50
2018-04-07T08:31:13.403Z,16.33
2018-04-07T08:33:40.973Z,15.37
2018-04-07T08:36:08.781Z,14.80
2018-04-07T08:38:36.328Z,12.80
2018-04-07T08:41:03.901Z,15.13
2018-04-07T08:43:31.448Z,13.17
2018-04-07T08:45:59.776Z,16.73
2018-04-07T08:48:27.328Z,16.37
2018-04-07T08:50:54.890Z,15.00
2018-04-07T08:53:22.458Z,14.10
2018-04-07T08:55:50.032Z,15.50
2018-04-07T08:58:17.601Z,13.00
2018-04-07T09:00:45.168Z,21.70
2018-04-07T09:03:12.725Z,15.10
2018-04-07T09:05:41.056Z,19.63
2018-04-07T09:08:08.628Z,14.67
2018-04-07T09:10:36.187Z,14.63
2018-04-07T09:13:03.742Z,20.00
2018-04-07T09:15:32.073Z,15.10
2018-04-07T09:18:02.376Z,13.37
2018-04-07T09:20:29.943Z,12.23
2018-04-07T09:22:57.485Z,13.73
2018-04-07T09:25:25.058Z,21.63
2018-04-07T09:27:52.620Z,12.77
2018-04-07T09:30:20.182Z,18.13
2018-04-07T09:32:52.476Z,11.77
2018-04-07T09:35:20.116Z,11.80
2018-04-07T09:37:47.718Z,10.50
2018-04-07T09:40:15.494Z,11.47
2018-04-07T09:42:43.832Z,14.23
2018-04-07T09:45:11.401Z,11.77
2018-04-07T09:47:38.951Z,10.80
2018-04-07T09:50:07.393Z,17.70
2018-04-07T09:52:34.946Z,11.43
2018-04-07T09:55:02.532Z,9.90
2018-04-07T09:57:30.096Z,12.43
2018-04-07T09:59:57.641Z,12.23
2018-04-07T10:02:25.977Z,9.63
2018-04-07T10:04:53.516Z,13.27
2018-04-07T10:07:21.901Z,18.43
2018-04-07T10:09:50.210Z,12.67
2018-04-07T10:12:17.778Z,17.20
2018-04-07T10:14:45.331Z,15.00
2018-04-07T10:17:13.081Z,16.00
2018-04-07T10:19:40.629Z,16.33
2018-04-07T10:22:08.210Z,14.60
2018-04-07T10:24:42.085Z,16.03
2018-04-07T10:27:16.269Z,10.37
2018-04-07T10:29:44.073Z,13.80
2018-04-07T10:32:11.649Z,14.30
2018-04-07T10:34:39.956Z,17.10
2018-04-07T10:37:07.521Z,15.27
2018-04-07T10:39:35.104Z,14.93
2018-04-07T10:42:02.685Z,14.23
2018-04-07T10:44:30.236Z,12.40
2018-04-07T10:46:57.806Z,23.50
2018-04-07T10:49:25.376Z,15.30
2018-04-07T10:51:53.050Z,12.83
2018-04-07T10:54:20.607Z,10.33
2018-04-07T10:56:48.939Z,13.03
2018-04-07T10:59:16.494Z,11.60
2018-04-07T11:01:44.058Z,11.60
2018-04-07T11:04:11.602Z,17.33
2018-04-07T11:06:39.941Z,14.23
2018-04-07T11:09:07.505Z,14.30
2018-04-07T11:11:35.063Z,15.37
2018-04-07T11:14:02.806Z,14.50
2018-04-07T11:16:31.145Z,13.20
2018-04-07T11:18:58.689Z,13.23
2018-04-07T11:21:26.264Z,14.33
2018-04-07T11:23:54.359Z,11.17
2018-04-07T11:26:21.953Z,13.93
2018-04-07T11:28:49.507Z,18.17
2018-04-07T11:31:17.133Z,11.10
2018-04-07T11:33:45.468Z,16.90
2018-04-07T11:36:13.303Z,13.60
2018-04-07T11:38:40.904Z,11.20
2018-04-07T11:41:08.734Z,13.80
2018-04-07T11:43:36.327Z,13.63
2018-04-07T11:46:03.872Z,17.33
2018-04-07T11:48:31.436Z,15.47
2018-04-07T11:50:58.975Z,12.20
2018-04-07T11:53:26.532Z,13.90
2018-04-07T11:55:54.854Z,16.73
2018-04-07T11:58:22.445Z,14.50
2018-04-07T12:00:50.130Z,19.00
2018-04-07T12:03:17.936Z,11.43
2018-04-07T12:05:45.690Z,18.10
2018-04-07T12:08:14.812Z,13.33
2018-04-07T12:10:43.289Z,16.17
2018-04-07T12:13:10.857Z,10.57
2018-04-07T12:15:38.524Z,25.73
2018-04-07T12:18:06.214Z,18.57
2018-04-07T12:20:33.845Z,13.10
2018-04-07T12:23:01.472Z,13.90
2018-04-07T12:25:29.034Z,13.90
2018-04-07T12:27:57.376Z,11.53
2018-04-07T12:30:25.051Z,14.83
2018-04-07T12:32:52.643Z,13.07
2018-04-07T12:35:20.225Z,16.00
2018-04-07T12:37:47.877Z,15.70
2018-04-07T12:40:16.220Z,18.13
2018-04-07T12:42:44.568Z,17.93
2018-04-07T12:45:12.270Z,16.93
2018-04-07T12:47:39.957Z,12.20
2018-04-07T12:50:07.652Z,13.97
2018-04-07T12:52:35.238Z,12.37
2018-04-07T12:55:02.781Z,14.70
2018-04-07T12:57:31.112Z,19.23
2018-04-07T12:59:58.661Z,16.23
2018-04-07T13:02:26.228Z,13.60
2018-04-07T13:04:54.549Z,11.50
2018-04-07T13:07:22.175Z,12.90
2018-04-07T13:09:49.720Z,14.30
2018-04-07T13:12:17.292Z,17.00
2018-04-07T13:14:45.614Z,12.80
2018-04-07T13:17:13.358Z,19.40
2018-04-07T13:19:41.236Z,11.50
2018-04-07T13:22:08.803Z,12.13
2018-04-07T13:24:36.640Z,12.27
2018-04-07T13:27:04.606Z,11.50
2018-04-07T13:29:33.323Z,15.70
2018-04-07T13:32:01.432Z,15.43
2018-04-07T13:34:29.020Z,14.30
2018-04-07T13:36:57.337Z,13.53
2018-04-07T13:39:25.672Z,19.60
2018-04-07T13:41:53.214Z,14.33
2018-04-07T13:44:21.536Z,14.63
2018-04-07T13:46:49.092Z,15.27
2018-04-07T13:49:16.656Z,15.80
2018-04-07T13:51:44.228Z,15.77
2018-04-07T13:54:11.797Z,10.90
2018-04-07T13:56:39.344Z,16.43
2018-04-07T13:59:06.910Z,13.50
2018-04-07T14:01:34.460Z,14.70
2018-04-07T14:04:02.030Z,14.70
2018-04-07T14:06:29.571Z,15.03
2018-04-07T14:08:57.141Z,11.40
2018-04-07T14:11:24.701Z,12.30
2018-04-07T14:13:52.287Z,11.53
2018-04-07T14:16:19.836Z,15.00
2018-04-07T14:18:48.170Z,13.37
2018-04-07T14:21:15.723Z,11.63
2018-04-07T14:23:43.309Z,11.67
2018-04-07T14:26:10.910Z,16.50
2018-04-07T14:28:39.256Z,10.97
2018-04-07T14:31:06.799Z,13.77
2018-04-07T14:33:35.132Z,16.27
2018-04-07T14:36:02.680Z,10.70
2018-04-07T14:38:30.245Z,9.80
2018-04-07T14:40:57.797Z,19.00
2018-04-07T14:43:26.101Z,11.50
2018-04-07T14:45:53.668Z,18.10
2018-04-07T14:48:21.984Z,13.43
2018-04-07T14:50:49.579Z,11.23
2018-04-07T14:53:17.124Z,15.70
2018-04-07T14:55:44.686Z,14.30
2018-04-07T14:58:12.236Z,15.73
2018-04-07T15:00:40.573Z,12.90
2018-04-07T15:03:08.117Z,16.63
2018-04-07T15:05:35.684Z,14.53
2018-04-07T15:08:03.227Z,12.23
2018-04-07T15:10:30.809Z,11.60
2018-04-07T15:12:59.128Z,14.03
2018-04-07T15:15:26.692Z,11.90
2018-04-07T15:17:54.275Z,17.63
2018-04-07T15:20:22.142Z,10.87
2018-04-07T15:22:49.685Z,14.40
2018-04-07T15:25:18.040Z,11.20
2018-04-07T15:27:46.362Z,12.93
2018-04-07T15:30:13.921Z,12.10
2018-04-07T15:32:41.473Z,15.93
2018-04-07T15:35:09.036Z,16.00
2018-04-07T15:37:37.354Z,13.07
2018-04-07T15:40:04.920Z,14.93
2018-04-07T15:42:32.477Z,15.83
2018-04-07T15:45:00.111Z,17.03
2018-04-07T15:47:27.625Z,13.60
2018-04-07T15:49:55.200Z,12.53
2018-04-07T15:52:22.752Z,12.50
2018-04-07T15:54:50.321Z,14.17
2018-04-07T15:57:17.873Z,13.00
2018-04-07T15:59:45.571Z,12.90
2018-04-07T16:02:13.330Z,13.50
2018-04-07T16:04:41.040Z,11.97
2018-04-07T16:07:08.600Z,12.90
2018-04-07T16:09:36.143Z,14.47
2018-04-07T16:12:03.714Z,14.73
2018-04-07T16:14:31.255Z,14.97
2018-04-07T16:16:59.595Z,15.10
2018-04-07T16:19:27.151Z,11.93
2018-04-07T16:21:54.734Z,21.00
2018-04-07T16:24:22.284Z,13.53
2018-04-07T16:26:49.849Z,13.13
2018-04-07T16:29:18.165Z,13.10
2018-04-07T16:31:46.495Z,13.90
2018-04-07T16:34:14.056Z,9.07
2018-04-07T16:36:41.635Z,15.23
2018-04-07T16:39:09.182Z,19.27
2018-04-07T16:41:36.781Z,18.37
2018-04-07T16:44:04.332Z,11.20
2018-04-07T16:46:32.661Z,8.50
2018-04-07T16:49:01.132Z,12.47
2018-04-07T16:51:28.704Z,12.07
2018-04-07T16:53:56.258Z,11.30
2018-04-07T16:56:23.920Z,10.17
2018-04-07T16:58:51.490Z,17.20
2018-04-07T17:01:19.113Z,9.40
2018-04-07T17:03:46.669Z,14.33
2018-04-07T17:06:15.177Z,11.40
2018-04-07T17:08:42.752Z,13.50
2018-04-07T17:11:11.754Z,10.47
2018-04-07T17:13:39.360Z,11.33
2018-04-07T17:16:06.920Z,11.50
2018-04-07T17:18:35.357Z,11.47
2018-04-07T17:21:02.917Z,12.93
2018-04-07T17:23:30.476Z,15.77
2018-04-07T17:25:58.020Z,11.23
2018-04-07T17:28:26.433Z,16.00
2018-04-07T17:30:53.980Z,13.10
2018-04-07T17:33:22.314Z,13.20
2018-04-07T17:35:49.866Z,13.83
2018-04-07T17:38:17.424Z,16.27
2018-04-07T17:40:44.980Z,10.30
2018-04-07T17:43:12.571Z,11.37
2018-04-07T17:45:40.122Z,11.87
2018-04-07T17:48:08.453Z,15.60
2018-04-07T17:50:36.005Z,9.40
2018-04-07T17:53:03.572Z,12.57
2018-04-07T17:55:31.126Z,10.40
2018-04-07T17:57:59.485Z,12.80
2018-04-07T18:00:27.036Z,10.30
2018-04-07T18:02:54.648Z,13.80
2018-04-07T18:05:22.196Z,11.00
2018-04-07T18:07:49.760Z,11.60
2018-04-07T18:10:17.308Z,19.00
2018-04-07T18:12:44.873Z,11.23
2018-04-07T18:15:12.436Z,9.07
2018-04-07T18:17:40.008Z,14.53
2018-04-07T18:20:08.324Z,11.40
2018-04-07T18:22:35.893Z,12.23
2018-04-07T18:25:03.509Z,13.70
2018-04-07T18:27:31.008Z,16.70
2018-04-07T18:29:59.340Z,11.97
2018-04-07T18:32:27.650Z,15.40
2018-04-07T18:34:55.217Z,12.53
2018-04-07T18:37:22.766Z,10.27
2018-04-07T18:39:50.329Z,14.90
2018-04-07T18:42:17.868Z,8.13
2018-04-07T18:44:46.187Z,12.53
2018-04-07T18:47:13.737Z,13.87
2018-04-07T18:49:41.332Z,11.67
2018-04-07T18:52:08.912Z,16.80
2018-04-07T18:54:36.479Z,13.87
2018-04-07T18:57:09.653Z,16.87
2018-04-07T18:59:37.226Z,11.17
2018-04-07T19:02:04.782Z,11.70
2018-04-07T19:04:33.112Z,11.10
2018-04-07T19:07:00.688Z,16.53
2018-04-07T19:09:28.337Z,11.37
2018-04-07T19:11:55.997Z,10.27
2018-04-07T19:14:23.588Z,11.40
2018-04-07T19:16:51.128Z,10.00
2018-04-07T19:19:18.697Z,15.30
2018-04-07T19:21:46.359Z,13.20
2018-04-07T19:24:14.816Z,13.17
2018-04-07T19:26:42.441Z,16.90
2018-04-07T19:29:10.047Z,10.60
2018-04-07T19:31:37.843Z,16.23
2018-04-07T19:34:05.490Z,12.60
2018-04-07T19:36:33.042Z,16.80
2018-04-07T19:39:01.755Z,20.20
2018-04-07T19:41:30.092Z,12.80
2018-04-07T19:43:57.652Z,19.40
2018-04-07T19:46:25.236Z,16.37
2018-04-07T19:48:52.784Z,15.07
2018-04-07T19:51:20.368Z,16.00
2018-04-07T19:53:48.032Z,17.23
2018-04-07T19:56:16.384Z,20.90
2018-04-07T19:58:44.764Z,16.80
2018-04-07T20:01:12.345Z,15.83
2018-04-07T20:03:40.658Z,16.30
2018-04-07T20:06:08.264Z,20.97
2018-04-07T20:08:35.820Z,15.83
2018-04-07T20:11:03.380Z,16.10
2018-04-07T20:13:30.935Z,21.80
2018-04-07T20:15:58.508Z,20.10
2018-04-07T20:18:26.820Z,20.83
2018-04-07T20:20:54.461Z,17.40
2018-04-07T20:23:22.882Z,16.83
2018-04-07T20:25:50.621Z,16.37
2018-04-07T20:28:19.048Z,16.97
2018-04-07T20:30:46.612Z,17.63
2018-04-07T20:33:14.180Z,18.70
2018-04-07T20:35:41.760Z,17.53
2018-04-07T20:38:09.447Z,18.97
2018-04-07T20:40:37.070Z,20.23
2018-04-07T20:43:13.458Z,16.90
2018-04-07T20:45:41.156Z,18.27
2018-04-07T20:48:08.737Z,26.10
2018-04-07T20:50:36.312Z,25.83
2018-04-07T20:53:03.941Z,20.50
2018-04-07T20:55:31.633Z,16.03
2018-04-07T20:57:59.949Z,17.13
2018-04-07T21:00:27.549Z,20.93
2018-04-07T21:02:55.100Z,19.57
2018-04-07T21:05:22.652Z,22.37
2018-04-07T21:07:50.217Z,23.70
2018-04-07T21:10:17.778Z,24.40
2018-04-07T21:12:46.115Z,24.00
2018-04-07T21:15:13.763Z,22.50
2018-04-07T21:17:41.411Z,19.10
2018-04-07T21:20:09.970Z,25.53
2018-04-07T21:22:38.529Z,20.57
2018-04-07T21:25:06.168Z,26.57
2018-04-07T21:27:33.769Z,24.33
2018-04-07T21:30:01.464Z,25.47
2018-04-07T21:32:29.131Z,25.00
2018-04-07T21:34:56.693Z,18.97
2018-04-07T21:37:24.265Z,19.53
2018-04-07T21:39:51.818Z,22.50
2018-04-07T21:42:20.163Z,21.53
2018-04-07T21:44:48.528Z,20.30
2018-04-07T21:47:16.096Z,27.90
2018-04-07T21:49:43.639Z,23.90
2018-04-07T21:52:12.212Z,26.43
2018-04-07T21:54:39.766Z,21.00
2018-04-07T21:57:07.340Z,20.50
2018-04-07T21:59:34.887Z,22.47
2018-04-07T22:02:02.465Z,29.23
2018-04-07T22:04:30.015Z,23.20
2018-04-07T22:06:57.585Z,24.40
2018-04-07T22:09:25.128Z,30.47
2018-04-07T22:11:52.716Z,25.77
2018-04-07T22:14:21.032Z,23.47
2018-04-07T22:16:48.578Z,22.07
2018-04-07T22:19:16.148Z,25.00
2018-04-07T22:21:43.708Z,23.83
2018-04-07T22:24:12.045Z,29.73
2018-04-07T22:26:39.593Z,23.83
2018-04-07T22:29:07.152Z,21.60
2018-04-07T22:31:35.472Z,24.00
2018-04-07T22:34:03.040Z,22.77
2018-04-07T22:36:30.590Z,26.67
2018-04-07T22:38:58.164Z,30.33
2018-04-07T22:41:25.716Z,22.33
2018-04-07T22:43:54.051Z,21.87
2018-04-07T22:46:21.601Z,26.07
2018-04-07T22:48:49.173Z,24.83
2018-04-07T22:51:16.739Z,24.63
2018-04-07T22:53:44.306Z,22.53
2018-04-07T22:56:12.627Z,30.07
2018-04-07T22:58:40.208Z,20.83
2018-04-07T23:01:07.760Z,25.13
2018-04-07T23:03:35.324Z,24.60
2018-04-07T23:06:02.872Z,25.43
2018-04-07T23:08:31.216Z,21.53
2018-04-07T23:10:58.764Z,27.03
2018-04-07T23:13:26.331Z,21.40
2018-04-07T23:15:53.882Z,21.40
2018-04-07T23:18:22.225Z,21.83
2018-04-07T23:20:49.785Z,27.70
2018-04-07T23:23:17.355Z,18.30
2018-04-07T23:25:44.912Z,23.20
2018-04-07T23:28:12.476Z,24.90
2018-04-07T23:30:40.046Z,22.80
2018-04-07T23:33:07.597Z,22.47
2018-04-07T23:35:35.939Z,20.80
2018-04-07T23:38:03.492Z,27.93
2018-04-07T23:40:31.056Z,23.73
2018-04-07T23:42:58.608Z,22.93
2018-04-07T23:45:26.944Z,19.70
2018-04-07T23:47:54.489Z,18.00
2018-04-07T23:50:22.052Z,27.10
2018-04-07T23:52:49.601Z,29.10
2018-04-07T23:55:17.163Z,19.37
2018-04-07T23:57:44.715Z,21.30
